Time;durP1;ratioP1;P1;durP2;ratioP2;P2;SDS_P1;SDS_P2;PMS_P1;PMS_P2;Temp;Humidity;BMP_temperature;BMP_pressure;BME280_temperature;BME280_humidity;BME280_pressure;Samples;Min_cycle;Max_cycle;Signal;HPM_P1;HPM_P2
2022/03/27 00:00:39;;;;;;;13.50;9.23;;;7.40;99.90;;;;;;5027551;28;20212;-77
2022/03/27 00:03:24;;;;;;;11.83;7.73;;;7.40;99.90;;;;;;5019679;28;20184;-78
2022/03/27 00:06:08;;;;;;;12.97;8.20;;;7.30;99.90;;;;;;5021771;28;20631;-79
2022/03/27 00:08:53;;;;;;;12.07;7.47;;;7.30;99.90;;;;;;5036389;28;20220;-78
2022/03/27 00:11:38;;;;;;;12.57;7.80;;;7.30;99.90;;;;;;5015065;28;20220;-77
2022/03/27 00:14:22;;;;;;;10.37;7.10;;;7.20;99.90;;;;;;5013882;28;20243;-77
2022/03/27 00:17:06;;;;;;;11.13;7.50;;;7.20;99.90;;;;;;5016864;28;20315;-77
2022/03/27 00:19:51;;;;;;;9.97;6.73;;;7.10;99.90;;;;;;5033702;28;20207;-79
2022/03/27 00:22:37;;;;;;;9.17;6.17;;;7.10;99.90;;;;;;5031361;28;20246;-77
2022/03/27 00:25:21;;;;;;;8.30;6.13;;;7.10;99.90;;;;;;5023581;28;20187;-79
2022/03/27 00:28:05;;;;;;;11.77;6.77;;;7.10;99.90;;;;;;5027270;28;20242;-78
2022/03/27 00:30:49;;;;;;;7.53;5.97;;;7.10;99.90;;;;;;5017899;28;20211;-78
2022/03/27 00:33:35;;;;;;;9.17;6.40;;;7.00;99.90;;;;;;5024536;28;20223;-78
2022/03/27 00:36:20;;;;;;;7.67;5.53;;;7.00;99.90;;;;;;5025409;28;20323;-76
2022/03/27 00:39:04;;;;;;;7.57;6.00;;;7.00;99.90;;;;;;5035261;28;20190;-78
2022/03/27 00:41:50;;;;;;;8.20;5.90;;;7.00;99.90;;;;;;5031107;28;20599;-81
2022/03/27 00:44:35;;;;;;;10.27;6.13;;;6.90;99.90;;;;;;5035034;28;20192;-77
2022/03/27 00:47:20;;;;;;;8.87;6.33;;;6.90;99.90;;;;;;5019445;28;20265;-78
2022/03/27 00:50:05;;;;;;;9.27;5.77;;;6.80;99.90;;;;;;5026723;28;20223;-78
2022/03/27 00:52:49;;;;;;;8.63;6.30;;;6.70;99.90;;;;;;5026422;28;20307;-80
2022/03/27 00:55:34;;;;;;;8.93;6.00;;;6.60;99.90;;;;;;5022705;28;20203;-78
2022/03/27 00:58:19;;;;;;;8.17;6.37;;;6.60;99.90;;;;;;5018132;28;20239;-78
2022/03/27 01:01:36;;;;;;;10.17;7.27;;;6.60;99.90;;;;;;5027589;28;20212;-77
2022/03/27 01:04:21;;;;;;;11.80;7.03;;;6.50;99.90;;;;;;5012904;28;20189;-76
2022/03/27 01:07:05;;;;;;;14.43;8.03;;;6.50;99.90;;;;;;5017372;28;20284;-77
2022/03/27 01:09:50;;;;;;;14.50;8.33;;;6.50;99.90;;;;;;5029031;28;20223;-81
2022/03/27 01:12:42;;;;;;;13.40;9.43;;;6.50;99.90;;;;;;5036524;28;20301;-78
2022/03/27 01:15:31;;;;;;;14.13;9.87;;;6.50;99.90;;;;;;5032506;28;20204;-79
2022/03/27 01:18:16;;;;;;;12.03;9.53;;;6.50;99.90;;;;;;5032845;28;20311;-78
2022/03/27 01:21:00;;;;;;;15.40;12.57;;;6.50;99.90;;;;;;5029785;28;20404;-77
2022/03/27 01:23:44;;;;;;;12.50;9.57;;;6.50;99.90;;;;;;5033589;28;20203;-77
2022/03/27 01:26:29;;;;;;;12.77;9.10;;;6.50;99.90;;;;;;5035474;28;20187;-77
2022/03/27 01:29:14;;;;;;;14.20;11.23;;;6.40;99.90;;;;;;5033676;28;20934;-78
2022/03/27 01:31:58;;;;;;;14.23;9.73;;;6.40;99.90;;;;;;5028469;28;20265;-79
2022/03/27 01:34:44;;;;;;;14.10;8.97;;;6.40;99.90;;;;;;5013356;28;20553;-79
2022/03/27 01:37:29;;;;;;;11.47;7.80;;;6.40;99.90;;;;;;5026560;28;20198;-79
2022/03/27 01:40:16;;;;;;;12.67;7.17;;;6.40;99.90;;;;;;5023398;28;20215;-78
2022/03/27 01:43:00;;;;;;;9.90;7.80;;;6.40;99.90;;;;;;5016725;28;20187;-77
2022/03/27 01:45:44;;;;;;;11.73;8.23;;;6.40;99.90;;;;;;5016479;28;20192;-78
2022/03/27 01:48:28;;;;;;;11.50;8.30;;;6.30;99.90;;;;;;5019608;28;20214;-78
2022/03/27 01:51:13;;;;;;;11.83;8.00;;;6.30;99.90;;;;;;5020313;28;20754;-77
2022/03/27 01:54:01;;;;;;;11.83;8.93;;;6.30;99.90;;;;;;5015316;28;20263;-77
2022/03/27 01:56:46;;;;;;;12.77;9.87;;;6.30;99.90;;;;;;5013690;28;20208;-77
2022/03/27 01:59:30;;;;;;;18.20;11.93;;;6.20;99.90;;;;;;5013722;28;20595;-79
2022/03/27 02:02:23;;;;;;;18.43;11.47;;;6.20;99.90;;;;;;5005942;28;20196;-78
2022/03/27 02:05:08;;;;;;;20.10;12.80;;;6.20;99.90;;;;;;5029360;28;20282;-78
2022/03/27 02:07:52;;;;;;;22.30;12.37;;;6.20;99.90;;;;;;5011684;28;20262;-78
2022/03/27 02:10:38;;;;;;;27.10;14.33;;;6.20;99.90;;;;;;5007435;28;20212;-76
2022/03/27 02:13:23;;;;;;;27.70;16.00;;;6.20;99.90;;;;;;5011691;28;20218;-77
2022/03/27 02:16:07;;;;;;;32.67;17.00;;;6.20;99.90;;;;;;5012586;28;20254;-76
2022/03/27 02:18:52;;;;;;;37.37;19.30;;;6.20;99.90;;;;;;5022528;28;20278;-77
2022/03/27 02:21:41;;;;;;;35.93;20.17;;;6.20;99.90;;;;;;5019554;28;20579;-78
2022/03/27 02:24:25;;;;;;;39.73;22.23;;;6.20;99.90;;;;;;5005358;28;20215;-79
2022/03/27 02:27:10;;;;;;;43.97;21.73;;;6.10;99.90;;;;;;5012008;28;20259;-77
2022/03/27 02:29:54;;;;;;;40.87;23.17;;;6.10;99.90;;;;;;5019235;28;20214;-78
2022/03/27 02:32:39;;;;;;;42.10;24.53;;;6.10;99.90;;;;;;5016779;28;20584;-80
2022/03/27 02:35:24;;;;;;;46.63;25.17;;;6.10;99.90;;;;;;5005400;28;20253;-78
2022/03/27 02:38:09;;;;;;;48.20;24.83;;;6.20;99.90;;;;;;5021564;28;20694;-78
2022/03/27 02:40:53;;;;;;;46.87;25.30;;;6.10;99.90;;;;;;5025377;28;20223;-77
2022/03/27 02:43:40;;;;;;;40.20;23.80;;;6.10;99.90;;;;;;5032322;28;20183;-76
2022/03/27 02:46:24;;;;;;;29.37;17.03;;;6.10;99.90;;;;;;5022075;28;20269;-78
2022/03/27 02:49:09;;;;;;;25.53;14.60;;;6.10;99.90;;;;;;5030124;28;20238;-77
2022/03/27 02:51:53;;;;;;;23.17;12.93;;;6.10;99.90;;;;;;5031163;28;20229;-77
2022/03/27 02:54:38;;;;;;;19.97;12.30;;;6.10;99.90;;;;;;5023651;28;20243;-76
2022/03/27 02:57:22;;;;;;;22.07;11.60;;;6.00;99.90;;;;;;5025653;28;20191;-77
2022/03/27 03:00:09;;;;;;;20.03;11.33;;;6.00;99.90;;;;;;5017003;28;20239;-77
2022/03/27 03:02:54;;;;;;;18.37;11.70;;;6.00;99.90;;;;;;5020547;28;20238;-78
2022/03/27 03:05:40;;;;;;;16.63;10.73;;;6.00;99.90;;;;;;5022559;28;20277;-77
2022/03/27 03:08:27;;;;;;;17.50;11.17;;;6.00;99.90;;;;;;5021220;28;20191;-78
2022/03/27 03:11:13;;;;;;;19.57;12.60;;;6.00;99.90;;;;;;5035710;28;20303;-76
2022/03/27 03:13:58;;;;;;;21.90;12.00;;;6.00;99.90;;;;;;5015734;28;20243;-77
2022/03/27 03:16:43;;;;;;;20.07;12.23;;;5.90;99.90;;;;;;5015623;28;20212;-78
2022/03/27 03:19:29;;;;;;;21.77;12.60;;;5.90;99.90;;;;;;5025463;28;20179;-78
2022/03/27 03:22:14;;;;;;;27.10;12.30;;;5.90;99.90;;;;;;5015339;28;20195;-77
2022/03/27 03:24:58;;;;;;;22.83;12.27;;;5.90;99.90;;;;;;5027116;28;20199;-77
2022/03/27 03:27:42;;;;;;;20.33;11.93;;;5.90;99.90;;;;;;5027102;28;20191;-78
2022/03/27 03:30:26;;;;;;;19.07;12.23;;;5.90;99.90;;;;;;5026423;28;20244;-78
2022/03/27 03:33:11;;;;;;;24.07;13.10;;;5.90;99.90;;;;;;5033252;28;20180;-77
2022/03/27 03:35:56;;;;;;;24.40;16.88;;;5.90;99.90;;;;;;5014362;28;20518;-79
2022/03/27 03:38:40;;;;;;;25.15;17.52;;;6.00;99.90;;;;;;5016575;28;20389;-79
2022/03/27 03:41:24;;;;;;;28.13;18.50;;;6.00;99.90;;;;;;5017037;28;20911;-77
2022/03/27 03:44:08;;;;;;;27.98;18.45;;;6.00;99.90;;;;;;5029023;28;20402;-78
2022/03/27 03:46:53;;;;;;;27.33;18.48;;;6.10;99.90;;;;;;5015195;28;20403;-78
2022/03/27 03:49:38;;;;;;;28.20;18.15;;;6.20;99.90;;;;;;5022130;28;20409;-78
2022/03/27 03:52:23;;;;;;;31.00;19.40;;;6.20;99.90;;;;;;5016194;28;20428;-77
2022/03/27 03:55:10;;;;;;;22.70;15.20;;;6.30;99.90;;;;;;5020123;28;20438;-77
2022/03/27 03:57:58;;;;;;;29.70;14.80;;;6.20;99.90;;;;;;5014200;28;20192;-76
2022/03/27 04:00:43;;;;;;;26.17;13.87;;;6.20;99.90;;;;;;5025444;28;20586;-77
2022/03/27 04:03:27;;;;;;;24.87;14.77;;;6.20;99.90;;;;;;5013477;28;20184;-78
2022/03/27 04:06:11;;;;;;;24.03;14.97;;;6.20;99.90;;;;;;5013900;28;20276;-78
2022/03/27 04:08:55;;;;;;;25.47;15.33;;;6.10;99.90;;;;;;5020710;28;20200;-78
2022/03/27 04:11:40;;;;;;;30.52;20.02;;;6.10;99.90;;;;;;5027772;28;20421;-79
2022/03/27 04:14:24;;;;;;;33.63;21.37;;;6.00;99.90;;;;;;5009132;28;20427;-77
2022/03/27 04:17:09;;;;;;;30.43;21.13;;;6.10;99.90;;;;;;5014290;28;20431;-77
2022/03/27 04:19:53;;;;;;;30.77;20.98;;;6.10;99.90;;;;;;5012626;28;20420;-76
2022/03/27 04:22:37;;;;;;;31.25;20.90;;;6.10;99.90;;;;;;5018730;28;20463;-79
2022/03/27 04:25:21;;;;;;;31.60;21.15;;;6.20;99.90;;;;;;5013685;28;20415;-79
2022/03/27 04:28:08;;;;;;;29.90;20.83;;;6.20;99.90;;;;;;5028502;28;20441;-79
2022/03/27 04:30:52;;;;;;;28.57;17.33;;;6.20;99.90;;;;;;5016805;28;20223;-78
2022/03/27 04:33:37;;;;;;;27.37;15.80;;;6.20;99.90;;;;;;5021008;28;20172;-76
2022/03/27 04:36:22;;;;;;;27.88;20.80;;;6.20;99.90;;;;;;5018686;28;20461;-78
2022/03/27 04:39:06;;;;;;;32.70;22.60;;;6.30;99.90;;;;;;5012266;28;20492;-78
2022/03/27 04:41:50;;;;;;;33.80;22.55;;;6.20;99.90;;;;;;5013250;28;20408;-78
2022/03/27 04:44:35;;;;;;;34.60;23.45;;;6.30;99.90;;;;;;5013692;28;20399;-77
2022/03/27 04:47:19;;;;;;;29.90;21.83;;;6.30;99.90;;;;;;5012921;28;20411;-79
2022/03/27 04:50:04;;;;;;;30.58;21.17;;;6.30;99.90;;;;;;5018394;28;20393;-79
2022/03/27 04:52:49;;;;;;;31.27;22.02;;;6.30;99.90;;;;;;5012307;28;20458;-81
2022/03/27 04:55:34;;;;;;;25.63;16.43;;;6.30;99.90;;;;;;5016222;28;20250;-76
2022/03/27 04:58:18;;;;;;;31.73;21.23;;;6.30;99.90;;;;;;5019213;28;20395;-78
2022/03/27 05:01:03;;;;;;;31.40;21.73;;;6.30;99.90;;;;;;5014321;28;20414;-78
2022/03/27 05:03:48;;;;;;;30.13;21.60;;;6.30;99.90;;;;;;5018442;28;20408;-77
2022/03/27 05:06:32;;;;;;;29.90;17.33;;;6.30;99.90;;;;;;5012262;28;20211;-77
2022/03/27 05:09:18;;;;;;;26.93;16.33;;;6.20;99.90;;;;;;5018758;28;20226;-75
2022/03/27 05:12:02;;;;;;;24.47;15.93;;;6.20;99.90;;;;;;5017007;28;20191;-77
2022/03/27 05:14:47;;;;;;;29.20;16.90;;;6.20;99.90;;;;;;5026702;28;20718;-77
2022/03/27 05:17:31;;;;;;;33.28;21.30;;;6.20;99.90;;;;;;5013827;28;20402;-77
2022/03/27 05:20:16;;;;;;;28.23;16.77;;;6.20;99.90;;;;;;5015763;28;20271;-78
2022/03/27 05:23:00;;;;;;;33.42;22.35;;;6.20;99.90;;;;;;5022283;28;20408;-78
2022/03/27 05:25:45;;;;;;;31.83;17.83;;;6.10;99.90;;;;;;5013359;28;20198;-79
2022/03/27 05:28:39;;;;;;;32.60;21.88;;;6.10;99.90;;;;;;5022861;28;20406;-78
2022/03/27 05:31:23;;;;;;;31.08;21.80;;;6.10;99.90;;;;;;5026899;28;20990;-79
2022/03/27 05:34:08;;;;;;;34.35;22.63;;;6.10;99.90;;;;;;5028260;28;20409;-77
2022/03/27 05:36:52;;;;;;;33.15;23.67;;;6.20;99.90;;;;;;5019308;28;20478;-77
2022/03/27 05:39:36;;;;;;;36.33;22.83;;;6.20;99.90;;;;;;5015542;28;20419;-78
2022/03/27 05:42:20;;;;;;;29.93;16.93;;;6.20;99.90;;;;;;5023475;28;20255;-75
2022/03/27 05:45:06;;;;;;;32.72;22.20;;;6.20;99.90;;;;;;5014720;28;20443;-77
2022/03/27 05:47:51;;;;;;;28.23;18.10;;;6.20;99.90;;;;;;5020189;28;20230;-76
2022/03/27 05:50:35;;;;;;;31.95;22.25;;;6.20;99.90;;;;;;5013077;28;20399;-77
2022/03/27 05:53:20;;;;;;;28.70;18.50;;;6.20;99.90;;;;;;5009465;28;20184;-76
2022/03/27 05:56:05;;;;;;;28.67;18.27;;;6.20;99.90;;;;;;5023005;28;20214;-76
2022/03/27 05:58:52;;;;;;;34.88;24.88;;;6.20;99.90;;;;;;5016017;28;20402;-77
2022/03/27 06:01:36;;;;;;;33.90;22.50;;;6.20;99.90;;;;;;5015798;28;20298;-76
2022/03/27 06:04:20;;;;;;;46.10;24.43;;;6.10;99.90;;;;;;5019688;28;20184;-76
2022/03/27 06:07:05;;;;;;;48.95;33.20;;;6.10;99.90;;;;;;5019272;28;20462;-77
2022/03/27 06:09:49;;;;;;;49.30;27.83;;;6.10;99.90;;;;;;5023968;28;20251;-76
2022/03/27 06:12:33;;;;;;;51.60;34.15;;;6.10;99.90;;;;;;5021430;28;20404;-77
2022/03/27 06:15:18;;;;;;;42.13;27.10;;;6.10;99.90;;;;;;4999781;28;20206;-77
2022/03/27 06:18:03;;;;;;;48.55;30.95;;;6.10;99.90;;;;;;5017397;28;20406;-76
2022/03/27 06:20:48;;;;;;;32.93;19.97;;;6.10;99.90;;;;;;5011858;28;20292;-76
2022/03/27 06:23:32;;;;;;;33.00;22.58;;;6.10;99.90;;;;;;5030597;28;20406;-77
2022/03/27 06:26:16;;;;;;;30.83;18.50;;;6.10;99.90;;;;;;5017950;28;20240;-77
2022/03/27 06:29:01;;;;;;;30.90;22.48;;;6.10;99.90;;;;;;5027426;28;20386;-77
2022/03/27 06:31:45;;;;;;;25.67;17.60;;;6.10;99.90;;;;;;5021973;28;20219;-77
2022/03/27 06:34:30;;;;;;;32.72;22.48;;;6.10;99.90;;;;;;5014785;28;20434;-77
2022/03/27 06:37:14;;;;;;;35.00;22.95;;;6.10;99.90;;;;;;5022662;28;20414;-77
2022/03/27 06:39:59;;;;;;;28.43;19.20;;;6.10;99.90;;;;;;5019965;28;20601;-78
2022/03/27 06:42:45;;;;;;;34.50;23.42;;;6.10;99.90;;;;;;5012476;28;20442;-76
2022/03/27 06:45:29;;;;;;;27.80;18.37;;;6.20;99.90;;;;;;5013563;28;20195;-78
2022/03/27 06:48:13;;;;;;;35.08;22.77;;;6.20;99.90;;;;;;5021268;28;20410;-77
2022/03/27 06:50:57;;;;;;;33.63;19.40;;;6.20;99.90;;;;;;5019989;28;20294;-77
2022/03/27 06:53:43;;;;;;;34.88;24.38;;;6.20;99.90;;;;;;5020761;28;20474;-77
2022/03/27 06:56:28;;;;;;;35.47;20.27;;;6.30;99.90;;;;;;5016306;28;20589;-77
2022/03/27 06:59:12;;;;;;;36.63;24.67;;;6.30;99.90;;;;;;5017176;28;20407;-77
2022/03/27 07:04:58;;;;;;;37.88;25.98;;;6.30;99.90;;;;;;5023403;28;20494;-78
2022/03/27 07:07:43;;;;;;;39.58;25.92;;;6.30;99.90;;;;;;5022962;28;20462;-77
2022/03/27 07:10:27;;;;;;;37.63;25.30;;;6.30;99.90;;;;;;5019537;28;20441;-77
2022/03/27 07:13:15;;;;;;;35.17;25.70;;;6.40;99.90;;;;;;5021036;28;20495;-78
2022/03/27 07:15:59;;;;;;;33.92;24.90;;;6.40;99.90;;;;;;5020830;28;20464;-78
2022/03/27 07:18:49;;;;;;;37.83;26.52;;;6.40;99.90;;;;;;5026101;28;20414;-77
2022/03/27 07:21:33;;;;;;;33.40;21.00;;;6.40;99.90;;;;;;5011597;28;20256;-77
2022/03/27 07:24:17;;;;;;;38.40;26.23;;;6.40;99.90;;;;;;5018051;28;20446;-77
2022/03/27 07:27:02;;;;;;;38.53;26.63;;;6.40;99.90;;;;;;5020186;28;20416;-77
2022/03/27 07:29:46;;;;;;;38.55;26.95;;;6.40;99.90;;;;;;5026457;28;20437;-79
2022/03/27 07:32:30;;;;;;;39.30;26.83;;;6.50;99.90;;;;;;5017291;28;20627;-77
2022/03/27 07:35:15;;;;;;;38.33;26.95;;;6.50;99.90;;;;;;5030293;28;20493;-78
2022/03/27 07:38:01;;;;;;;29.57;20.53;;;6.50;99.90;;;;;;5014744;28;20192;-78
2022/03/27 07:40:47;;;;;;;39.95;26.90;;;6.50;99.90;;;;;;5015826;28;20755;-77
2022/03/27 07:43:32;;;;;;;42.70;27.93;;;6.60;99.90;;;;;;5024100;28;20479;-77
2022/03/27 07:46:16;;;;;;;37.22;26.48;;;6.60;99.90;;;;;;5014132;28;20906;-77
2022/03/27 07:49:01;;;;;;;35.57;21.23;;;6.60;99.90;;;;;;5024297;28;20695;-78
2022/03/27 07:51:45;;;;;;;38.95;27.73;;;6.60;99.90;;;;;;5013228;28;20435;-78
2022/03/27 07:54:29;;;;;;;38.28;27.13;;;6.60;99.90;;;;;;5024942;28;20439;-78
2022/03/27 07:57:13;;;;;;;39.40;27.27;;;6.70;99.90;;;;;;5014179;28;20555;-78
2022/03/27 07:59:57;;;;;;;37.10;21.93;;;6.70;99.90;;;;;;5013106;28;20616;-75
2022/03/27 08:02:42;;;;;;;37.90;21.30;;;6.70;99.90;;;;;;5012939;28;20231;-74
2022/03/27 08:05:27;;;;;;;36.27;20.23;;;6.80;99.90;;;;;;5014054;28;20219;-75
2022/03/27 08:08:11;;;;;;;40.50;20.27;;;6.80;99.90;;;;;;5016811;28;20179;-75
2022/03/27 08:10:55;;;;;;;37.67;21.50;;;6.80;99.90;;;;;;5015022;28;20255;-75
2022/03/27 08:13:39;;;;;;;37.67;21.70;;;6.80;99.90;;;;;;5015805;28;20679;-76
2022/03/27 08:16:25;;;;;;;37.10;20.57;;;6.90;99.90;;;;;;5017682;28;20220;-78
2022/03/27 08:19:09;;;;;;;36.97;21.27;;;6.80;99.90;;;;;;5032330;28;20214;-78
2022/03/27 08:21:53;;;;;;;39.57;21.00;;;6.80;99.90;;;;;;5031798;28;20279;-78
2022/03/27 08:24:38;;;;;;;34.77;20.97;;;6.80;99.90;;;;;;5017535;28;20282;-77
2022/03/27 08:27:22;;;;;;;41.37;23.57;;;6.80;99.90;;;;;;5046147;28;20180;-76
2022/03/27 08:30:08;;;;;;;43.10;21.53;;;6.90;99.90;;;;;;5031424;28;20207;-77
2022/03/27 08:32:52;;;;;;;36.53;21.87;;;6.90;99.90;;;;;;5014193;28;20196;-77
2022/03/27 08:35:38;;;;;;;41.70;22.20;;;6.90;99.90;;;;;;5026255;28;20251;-77
2022/03/27 08:38:22;;;;;;;45.27;24.40;;;7.00;99.90;;;;;;5025794;28;20191;-77
2022/03/27 08:41:09;;;;;;;41.20;22.90;;;7.00;99.90;;;;;;5013102;28;20267;-78
2022/03/27 08:43:58;;;;;;;42.43;22.73;;;7.00;99.90;;;;;;5017200;28;20173;-78
2022/03/27 08:46:43;;;;;;;47.03;23.63;;;7.00;99.90;;;;;;5032251;28;20187;-77
2022/03/27 08:49:33;;;;;;;41.63;24.20;;;7.10;99.90;;;;;;5031232;28;20222;-78
2022/03/27 08:52:17;;;;;;;42.30;24.33;;;7.20;99.90;;;;;;5015366;28;20199;-78
2022/03/27 08:55:08;;;;;;;41.83;23.60;;;7.20;99.90;;;;;;5012999;28;20212;-77
2022/03/27 08:58:03;;;;;;;49.53;23.33;;;7.20;99.90;;;;;;5012831;28;20196;-78
2022/03/27 09:00:49;;;;;;;44.53;22.93;;;7.30;99.90;;;;;;5011738;28;20204;-77
2022/03/27 09:03:34;;;;;;;44.73;23.67;;;7.40;99.90;;;;;;5013347;28;20184;-78
2022/03/27 09:06:21;;;;;;;38.57;23.50;;;7.40;99.90;;;;;;5024194;28;20246;-78
2022/03/27 09:09:06;;;;;;;41.47;23.00;;;7.40;99.90;;;;;;5032913;28;20234;-77
2022/03/27 09:11:56;;;;;;;38.30;22.83;;;7.40;99.90;;;;;;5031040;28;20252;-77
2022/03/27 09:14:41;;;;;;;56.17;31.05;;;7.50;99.90;;;;;;5030660;28;20437;-77
2022/03/27 09:17:26;;;;;;;47.17;31.60;;;7.50;99.90;;;;;;5016941;28;20511;-77
2022/03/27 09:20:10;;;;;;;50.97;31.45;;;7.50;99.90;;;;;;5025386;28;20400;-78
2022/03/27 09:22:54;;;;;;;48.40;31.47;;;7.60;99.90;;;;;;5019253;28;20386;-78
2022/03/27 09:25:53;;;;;;;43.20;30.73;;;7.70;99.90;;;;;;5029849;28;20509;-78
2022/03/27 09:28:42;;;;;;;41.27;24.00;;;7.80;99.90;;;;;;5033335;28;20227;-77
2022/03/27 09:31:28;;;;;;;36.90;22.33;;;7.90;99.90;;;;;;5011141;28;20214;-77
2022/03/27 09:34:12;;;;;;;35.33;21.70;;;7.90;99.90;;;;;;5019071;28;20196;-79
2022/03/27 09:36:56;;;;;;;38.33;21.50;;;7.90;99.90;;;;;;5010847;28;20271;-78
2022/03/27 09:39:54;;;;;;;36.90;21.13;;;7.90;99.90;;;;;;5039836;28;20245;-78
2022/03/27 09:42:40;;;;;;;35.63;20.97;;;7.80;99.90;;;;;;5029088;28;20203;-78
2022/03/27 09:45:24;;;;;;;37.60;21.00;;;7.90;99.90;;;;;;5031874;28;20210;-76
2022/03/27 09:48:09;;;;;;;46.67;28.63;;;7.90;99.90;;;;;;5034259;28;20402;-75
2022/03/27 09:50:58;;;;;;;40.20;23.40;;;7.90;99.90;;;;;;5020648;28;20205;-78
2022/03/27 09:53:42;;;;;;;38.87;22.20;;;8.00;99.90;;;;;;5023531;28;20274;-76
2022/03/27 09:56:30;;;;;;;37.73;21.70;;;8.00;99.90;;;;;;5023906;28;20643;-76
2022/03/27 09:59:32;;;;;;;39.17;21.30;;;8.00;99.90;;;;;;5010337;28;20185;-76
2022/03/27 10:02:30;;;;;;;42.67;21.67;;;8.10;99.90;;;;;;5016641;28;20187;-77
2022/03/27 10:05:16;;;;;;;36.77;20.13;;;8.10;99.90;;;;;;5018216;28;20195;-76
2022/03/27 10:08:01;;;;;;;38.33;21.90;;;8.20;99.90;;;;;;5025334;28;20241;-76
2022/03/27 10:10:47;;;;;;;38.13;21.50;;;8.30;99.90;;;;;;5025434;28;20303;-76
2022/03/27 10:13:30;;;;;;;43.93;21.63;;;8.30;99.90;;;;;;5022256;28;20242;-76
2022/03/27 10:16:15;;;;;;;41.27;22.03;;;8.30;99.90;;;;;;5010023;28;20210;-76
2022/03/27 10:19:06;;;;;;;37.57;20.30;;;8.30;99.90;;;;;;5016222;28;20171;-77
2022/03/27 10:21:52;;;;;;;39.30;21.70;;;8.30;99.90;;;;;;5021786;28;20187;-76
2022/03/27 10:24:40;;;;;;;35.27;20.03;;;8.30;99.90;;;;;;5011392;28;20196;-77
2022/03/27 10:27:25;;;;;;;40.00;20.07;;;8.40;99.90;;;;;;5020011;28;20225;-77
2022/03/27 10:30:11;;;;;;;37.63;20.53;;;8.40;99.90;;;;;;5013678;28;20327;-77
2022/03/27 10:32:56;;;;;;;40.50;21.47;;;8.50;99.90;;;;;;5010915;28;20196;-77
2022/03/27 10:36:08;;;;;;;45.00;21.10;;;8.50;99.90;;;;;;5019804;28;20219;-77
2022/03/27 10:39:22;;;;;;;36.40;20.53;;;8.50;99.90;;;;;;5019147;28;20208;-77
2022/03/27 10:42:34;;;;;;;42.90;26.90;;;8.60;99.90;;;;;;5025989;28;20881;-76
2022/03/27 10:45:20;;;;;;;33.83;20.93;;;8.70;99.90;;;;;;5007055;28;20273;-77
2022/03/27 10:48:11;;;;;;;35.50;20.30;;;8.70;99.90;;;;;;5018411;28;20196;-77
2022/03/27 10:50:55;;;;;;;37.50;20.93;;;8.80;99.90;;;;;;5012584;28;20303;-77
2022/03/27 10:54:18;;;;;;;37.13;19.10;;;8.90;99.90;;;;;;5021636;28;20227;-77
2022/03/27 10:57:04;;;;;;;33.37;20.07;;;8.90;99.90;;;;;;5020537;28;20232;-76
2022/03/27 10:59:49;;;;;;;38.90;19.60;;;9.00;99.90;;;;;;5026467;28;20320;-77
2022/03/27 11:02:46;;;;;;;36.30;19.40;;;9.10;99.90;;;;;;5007175;28;20203;-77
2022/03/27 11:05:36;;;;;;;35.23;19.13;;;9.10;99.90;;;;;;5011877;28;20200;-76
2022/03/27 11:08:20;;;;;;;35.90;19.83;;;9.20;99.90;;;;;;5017843;28;20179;-77
2022/03/27 11:11:04;;;;;;;40.20;21.13;;;9.20;99.90;;;;;;5028778;28;20207;-77
2022/03/27 11:13:48;;;;;;;35.23;19.63;;;9.30;99.90;;;;;;5008219;28;20176;-76
2022/03/27 11:16:36;;;;;;;32.93;19.23;;;9.40;99.90;;;;;;5014765;28;20571;-77
2022/03/27 11:19:41;;;;;;;32.57;19.10;;;9.40;99.90;;;;;;5022388;28;20235;-77
2022/03/27 11:22:48;;;;;;;38.33;20.03;;;9.40;99.90;;;;;;5021770;28;20707;-77
2022/03/27 11:25:38;;;;;;;33.30;19.73;;;9.50;99.90;;;;;;5022506;28;20237;-76
2022/03/27 11:28:22;;;;;;;27.30;17.97;;;9.70;99.90;;;;;;5022308;28;20188;-77
2022/03/27 11:31:09;;;;;;;36.23;19.87;;;9.80;99.90;;;;;;5026311;28;20274;-77
2022/03/27 11:34:09;;;;;;;33.73;19.33;;;9.80;99.90;;;;;;5024232;28;20191;-76
2022/03/27 11:37:11;;;;;;;33.80;19.23;;;9.90;99.90;;;;;;5020303;28;20203;-77
2022/03/27 11:39:55;;;;;;;32.60;19.57;;;10.00;99.90;;;;;;5039532;28;20212;-76
2022/03/27 11:42:39;;;;;;;33.97;19.73;;;10.00;99.90;;;;;;5026550;28;20215;-78
2022/03/27 11:45:25;;;;;;;33.83;18.70;;;10.10;99.90;;;;;;5012667;28;20224;-76
2022/03/27 11:48:16;;;;;;;34.27;20.13;;;10.20;99.90;;;;;;5027288;28;20242;-77
2022/03/27 11:51:01;;;;;;;32.47;17.93;;;10.30;99.90;;;;;;5020010;28;20343;-76
2022/03/27 11:53:45;;;;;;;35.27;19.47;;;10.40;99.90;;;;;;5009029;28;20196;-77
2022/03/27 11:56:29;;;;;;;29.00;17.40;;;10.50;99.90;;;;;;5016236;28;20644;-76
2022/03/27 11:59:14;;;;;;;33.20;19.23;;;10.50;99.90;;;;;;5025584;28;20258;-77
2022/03/27 12:02:00;;;;;;;32.73;19.50;;;10.50;99.90;;;;;;5022819;28;20266;-77
2022/03/27 12:04:55;;;;;;;34.33;19.70;;;10.50;99.90;;;;;;5021499;28;20211;-76
2022/03/27 12:07:48;;;;;;;29.90;18.67;;;10.60;99.90;;;;;;5021298;28;20285;-78
2022/03/27 12:10:43;;;;;;;29.90;18.77;;;10.70;99.90;;;;;;5027226;28;20295;-77
2022/03/27 12:13:28;;;;;;;28.50;19.03;;;10.70;99.90;;;;;;5025108;28;20200;-77
2022/03/27 12:16:22;;;;;;;31.43;18.97;;;10.80;99.90;;;;;;5015107;28;20215;-76
2022/03/27 12:19:13;;;;;;;33.33;18.73;;;10.80;99.90;;;;;;5015139;28;20789;-77
2022/03/27 12:21:58;;;;;;;33.93;19.13;;;10.80;99.90;;;;;;5015476;28;20192;-77
2022/03/27 12:24:43;;;;;;;34.17;18.00;;;10.90;99.90;;;;;;5023082;28;20271;-77
2022/03/27 12:30:36;;;;;;;30.33;19.47;;;11.00;99.90;;;;;;4999003;28;20211;-77
2022/03/27 12:33:21;;;;;;;30.17;19.33;;;11.00;99.90;;;;;;5032125;28;20270;-77
2022/03/27 12:36:10;;;;;;;26.53;17.40;;;11.20;99.90;;;;;;5022709;28;20285;-78
2022/03/27 12:38:55;;;;;;;29.83;18.50;;;11.20;99.90;;;;;;5014678;28;20188;-78
2022/03/27 12:41:42;;;;;;;31.73;18.17;;;11.20;99.90;;;;;;5027775;28;20250;-78
2022/03/27 12:44:46;;;;;;;33.03;18.43;;;11.20;99.90;;;;;;5026440;28;20194;-77
2022/03/27 12:47:39;;;;;;;25.83;17.27;;;11.20;99.90;;;;;;5025638;28;20576;-78
2022/03/27 12:50:26;;;;;;;31.47;17.93;;;11.20;99.90;;;;;;5022801;28;20254;-77
2022/03/27 12:53:13;;;;;;;28.63;17.60;;;11.20;99.90;;;;;;5041127;28;20215;-77
2022/03/27 12:56:09;;;;;;;25.67;17.10;;;11.30;99.90;;;;;;5020559;28;20203;-79
2022/03/27 12:58:53;;;;;;;28.67;17.10;;;11.40;99.90;;;;;;5027108;28;20215;-77
2022/03/27 13:01:38;;;;;;;25.87;17.67;;;11.50;99.90;;;;;;5030108;28;20207;-78
2022/03/27 13:04:22;;;;;;;29.37;17.53;;;11.60;99.90;;;;;;5023015;28;20191;-77
2022/03/27 13:07:06;;;;;;;24.17;16.97;;;11.70;99.90;;;;;;5032057;28;20195;-78
2022/03/27 13:09:53;;;;;;;29.10;17.87;;;11.80;99.90;;;;;;5026755;28;20288;-77
2022/03/27 13:12:38;;;;;;;27.17;17.23;;;11.80;99.90;;;;;;5027636;28;20194;-78
2022/03/27 13:15:35;;;;;;;28.80;16.73;;;11.90;99.90;;;;;;5025327;28;20223;-79
2022/03/27 13:18:28;;;;;;;26.93;17.07;;;11.90;99.90;;;;;;5010636;28;20192;-78
2022/03/27 13:21:14;;;;;;;25.93;17.40;;;11.90;99.90;;;;;;5012607;28;20232;-77
2022/03/27 13:24:00;;;;;;;28.27;16.13;;;11.90;99.90;;;;;;5031345;28;20215;-77
2022/03/27 13:26:49;;;;;;;23.93;16.03;;;12.00;99.90;;;;;;5009884;28;20668;-77
2022/03/27 13:29:36;;;;;;;25.20;17.00;;;12.00;99.90;;;;;;5020764;28;20203;-77
2022/03/27 13:32:21;;;;;;;24.67;15.40;;;12.10;99.90;;;;;;5016484;28;20335;-78
2022/03/27 13:35:06;;;;;;;25.60;16.03;;;12.10;99.90;;;;;;5012941;28;20219;-77
2022/03/27 13:37:51;;;;;;;23.73;15.67;;;12.20;99.90;;;;;;5031922;28;20263;-79
2022/03/27 13:43:41;;;;;;;28.67;17.60;;;12.30;99.90;;;;;;5027903;28;20671;-78
2022/03/27 13:46:26;;;;;;;30.97;16.97;;;12.30;99.90;;;;;;5026177;28;20242;-78
2022/03/27 13:49:10;;;;;;;24.77;16.00;;;12.30;99.90;;;;;;5023783;28;20281;-78
2022/03/27 13:51:56;;;;;;;29.40;18.10;;;12.30;99.90;;;;;;5021468;28;20195;-78
2022/03/27 13:54:40;;;;;;;31.93;19.00;;;12.40;99.90;;;;;;5029013;28;20190;-77
2022/03/27 13:57:25;;;;;;;37.27;19.87;;;12.50;99.90;;;;;;5030438;28;20237;-78
2022/03/27 14:00:10;;;;;;;31.43;19.53;;;12.50;99.90;;;;;;5025013;28;20742;-77
2022/03/27 14:02:54;;;;;;;34.03;19.77;;;12.50;99.90;;;;;;5017837;28;20323;-77
2022/03/27 14:05:39;;;;;;;31.70;19.80;;;12.60;99.90;;;;;;4992134;28;20336;-77
2022/03/27 14:08:23;;;;;;;33.27;19.93;;;12.60;99.90;;;;;;5018963;28;20536;-77
2022/03/27 14:11:07;;;;;;;35.63;20.40;;;12.80;99.90;;;;;;5012378;28;20211;-77
2022/03/27 14:13:51;;;;;;;33.20;20.53;;;12.90;99.90;;;;;;5002753;28;20251;-78
2022/03/27 14:16:37;;;;;;;34.23;21.10;;;12.90;99.90;;;;;;5009905;28;20266;-80
2022/03/27 14:19:21;;;;;;;32.93;19.80;;;12.90;99.90;;;;;;5025698;28;20183;-78
2022/03/27 14:22:05;;;;;;;29.30;18.53;;;12.90;99.90;;;;;;5030655;28;20210;-78